createdAt,value
2023-01-05T04:03:07.067Z,100.00
2023-01-05T04:06:17.662Z,100.00
2023-01-05T04:09:28.103Z,100.00
2023-01-05T04:12:38.206Z,100.00
2023-01-05T04:15:48.495Z,100.00
2023-01-05T04:18:59.894Z,100.00
2023-01-05T04:22:09.843Z,100.00
2023-01-05T04:25:20.740Z,100.00
2023-01-05T04:28:31.415Z,100.00
2023-01-05T04:31:42.053Z,100.00
2023-01-05T04:34:53.471Z,100.00
2023-01-05T04:38:04.548Z,100.00
2023-01-05T04:41:15.477Z,99.33
2023-01-05T04:44:30.435Z,97.16
2023-01-05T04:47:43.683Z,97.01
2023-01-05T04:50:57.298Z,96.50
2023-01-05T04:54:13.256Z,95.85
2023-01-05T04:57:24.953Z,95.97
2023-01-05T05:00:36.103Z,93.41
2023-01-05T05:03:50.011Z,90.56
2023-01-05T05:07:03.824Z,90.43
2023-01-05T05:10:18.021Z,91.40
2023-01-05T05:13:28.777Z,91.22
2023-01-05T05:16:38.966Z,90.61
2023-01-05T05:19:50.865Z,91.55
2023-01-05T05:23:04.933Z,90.93
2023-01-05T05:26:16.738Z,90.32
2023-01-05T05:29:29.102Z,89.73
2023-01-05T05:32:44.000Z,90.00
2023-01-05T05:35:54.508Z,90.59
2023-01-05T05:39:05.851Z,90.75
2023-01-05T05:42:18.697Z,90.51
2023-01-05T05:45:28.690Z,91.97
2023-01-05T05:48:38.660Z,92.58
2023-01-05T05:51:48.824Z,91.92
2023-01-05T05:55:02.779Z,92.36
2023-01-05T05:58:12.893Z,92.95
2023-01-05T07:53:04.049Z,100.00
2023-01-05T07:56:14.699Z,100.00
2023-01-05T07:59:24.866Z,100.00
2023-01-05T08:02:36.224Z,100.00
2023-01-05T08:05:46.973Z,99.97
2023-01-05T08:09:18.663Z,99.92
2023-01-05T08:12:29.545Z,99.38
2023-01-05T08:15:39.772Z,99.84
2023-01-05T08:18:49.874Z,100.00
2023-01-05T08:22:00.801Z,100.00
2023-01-05T08:25:12.517Z,100.00
2023-01-05T08:28:22.791Z,100.00
2023-01-05T08:31:37.415Z,100.00
2023-01-05T08:34:52.070Z,100.00
2023-01-05T08:38:05.720Z,100.00
2023-01-05T08:41:18.799Z,100.00
2023-01-05T08:44:29.012Z,100.00
2023-01-05T08:47:38.938Z,100.00
2023-01-05T08:50:49.073Z,99.41
2023-01-05T08:53:59.737Z,98.98
2023-01-05T08:57:11.284Z,98.30
2023-01-05T09:00:22.177Z,96.06
2023-01-05T09:03:34.407Z,96.50
2023-01-05T09:06:44.731Z,94.04
2023-01-05T09:09:54.671Z,92.71
2023-01-05T09:13:06.359Z,92.78
2023-01-05T09:16:42.320Z,93.72
2023-01-05T09:19:48.914Z,93.20
2023-01-05T09:22:59.052Z,92.37
2023-01-05T09:26:10.861Z,91.68
2023-01-05T09:29:22.435Z,90.19
2023-01-05T09:32:32.476Z,89.52
2023-01-05T09:35:42.667Z,88.50
2023-01-05T09:38:53.760Z,87.28
2023-01-05T09:42:07.782Z,86.50
2023-01-05T09:45:26.824Z,85.74
2023-01-05T09:48:42.181Z,86.52
2023-01-05T09:52:01.430Z,86.81
2023-01-05T09:55:17.121Z,84.82
2023-01-05T09:58:30.435Z,85.57
2023-01-05T10:01:42.825Z,85.87
2023-01-05T10:04:54.402Z,85.17
2023-01-05T10:08:08.161Z,84.40
2023-01-05T10:11:36.383Z,84.00
2023-01-05T10:14:49.021Z,84.83
2023-01-05T10:18:03.922Z,84.96
2023-01-05T10:21:22.368Z,84.58
2023-01-05T10:24:41.859Z,84.16
2023-01-05T10:28:02.883Z,83.04
2023-01-05T10:31:20.656Z,82.81
2023-01-05T10:34:48.215Z,81.45
2023-01-05T10:38:13.170Z,81.61
2023-01-05T10:41:30.599Z,81.17
2023-01-05T10:44:53.687Z,81.88
2023-01-05T10:48:04.381Z,82.37
2023-01-05T10:51:15.828Z,83.63
2023-01-05T10:54:36.335Z,82.43
2023-01-05T10:57:47.730Z,83.72
2023-01-05T11:01:00.851Z,85.66
2023-01-05T11:07:52.013Z,85.16
2023-01-05T11:11:04.511Z,85.83
2023-01-05T11:14:17.539Z,83.61
2023-01-05T11:17:31.100Z,81.57
2023-01-05T11:21:06.253Z,82.56
2023-01-05T11:24:30.941Z,80.71
2023-01-05T11:27:41.577Z,80.45
2023-01-05T11:31:01.993Z,78.81
2023-01-05T11:34:23.283Z,79.58
2023-01-05T11:37:34.930Z,79.58
2023-01-05T11:40:46.514Z,80.21
2023-01-05T11:44:01.069Z,80.87
2023-01-05T11:47:18.883Z,81.47
2023-01-05T11:50:32.216Z,82.98
2023-01-05T11:53:42.213Z,83.36
2023-01-05T11:57:13.827Z,84.73
2023-01-05T12:00:26.658Z,85.90
2023-01-05T12:03:58.629Z,87.02
2023-01-05T12:07:19.433Z,90.03
2023-01-05T12:10:42.294Z,92.56
2023-01-05T12:14:08.712Z,93.46
2023-01-05T12:17:27.741Z,94.66
2023-01-05T12:20:50.856Z,94.78
2023-01-05T12:24:24.989Z,94.97
2023-01-05T12:27:52.453Z,96.89
2023-01-05T12:35:20.992Z,97.83
2023-01-05T12:38:38.853Z,98.10
2023-01-05T12:42:01.786Z,100.00
2023-01-05T12:45:36.550Z,100.00
2023-01-05T12:48:54.324Z,100.00
2023-01-05T12:52:10.624Z,100.00
2023-01-05T12:55:25.554Z,100.00
2023-01-05T12:58:39.767Z,99.29
2023-01-05T13:02:01.397Z,98.47
2023-01-05T13:05:20.741Z,97.51
2023-01-05T13:08:39.415Z,96.97
2023-01-05T13:11:54.563Z,96.46
2023-01-05T13:15:16.327Z,96.64
2023-01-05T13:18:28.148Z,96.15
2023-01-05T13:21:43.914Z,94.75
2023-01-05T13:25:01.106Z,93.72
2023-01-05T13:28:20.593Z,94.26
2023-01-05T13:31:54.346Z,94.40
2023-01-05T13:35:32.395Z,88.81
2023-01-05T13:39:10.072Z,89.11
2023-01-05T13:42:38.289Z,87.19
2023-01-05T13:46:07.168Z,85.99
2023-01-05T13:49:36.160Z,84.82
2023-01-05T13:52:59.533Z,84.20
2023-01-05T13:56:18.922Z,82.96
2023-01-05T13:59:35.759Z,83.70
2023-01-05T14:03:07.172Z,82.44
2023-01-05T14:06:22.374Z,82.34
2023-01-05T14:09:37.127Z,82.84
2023-01-05T14:12:51.383Z,82.65
2023-01-05T14:16:01.645Z,82.57
2023-01-05T14:19:15.301Z,83.22
2023-01-05T14:22:36.075Z,81.56
2023-01-05T14:25:54.269Z,82.98
2023-01-05T14:29:05.829Z,81.54
2023-01-05T14:32:23.552Z,82.35
2023-01-05T14:35:37.421Z,82.14
2023-01-05T14:38:49.381Z,82.22
2023-01-05T14:42:05.375Z,82.14
2023-01-05T14:45:24.652Z,82.08
2023-01-05T14:48:37.557Z,82.33
2023-01-05T14:51:54.857Z,84.05
2023-01-05T14:55:26.922Z,83.55
2023-01-05T14:58:57.444Z,83.56
2023-01-05T15:02:20.108Z,83.81
2023-01-05T15:05:30.734Z,84.17
2023-01-05T15:09:09.834Z,83.76
2023-01-05T15:12:40.102Z,83.29
2023-01-05T15:15:56.910Z,83.66
2023-01-05T15:19:26.682Z,83.44
2023-01-05T15:22:54.469Z,82.99
2023-01-05T15:26:22.859Z,84.50
2023-01-05T15:29:48.281Z,84.24
2023-01-05T15:33:10.568Z,84.92
2023-01-05T15:36:29.672Z,85.13
2023-01-05T15:39:47.478Z,84.96
2023-01-05T15:43:00.483Z,86.06
2023-01-05T15:46:12.610Z,85.87
2023-01-05T15:49:28.412Z,86.31
2023-01-05T15:52:41.029Z,87.10
2023-01-05T15:55:52.158Z,87.97
2023-01-05T15:59:03.680Z,88.75
2023-01-05T16:02:18.734Z,89.41
2023-01-05T16:05:32.746Z,90.40
2023-01-05T16:08:46.802Z,90.93
2023-01-05T16:11:59.891Z,91.60
2023-01-05T16:15:16.608Z,91.92
2023-01-05T16:18:32.112Z,92.67
2023-01-05T16:21:45.333Z,92.45
2023-01-05T16:25:00.900Z,92.22
2023-01-05T16:28:17.619Z,91.97
2023-01-05T16:31:32.478Z,93.08
2023-01-05T16:34:42.607Z,93.05
2023-01-05T16:38:05.600Z,92.20
2023-01-05T16:41:22.333Z,93.39
2023-01-05T16:44:34.399Z,93.21
2023-01-05T16:47:44.744Z,95.33
2023-01-05T16:50:57.015Z,95.25
2023-01-05T16:54:18.976Z,96.12
2023-01-05T16:57:40.839Z,95.89
2023-01-05T17:00:50.837Z,95.38
2023-01-05T17:04:01.337Z,95.55
2023-01-05T17:07:11.539Z,95.43
2023-01-05T17:10:24.757Z,96.22
2023-01-05T17:13:41.422Z,96.50
2023-01-05T17:16:51.631Z,96.48
2023-01-05T17:20:01.969Z,97.44
2023-01-05T17:23:16.336Z,98.44
2023-01-05T17:26:30.069Z,98.18
2023-01-05T17:29:41.354Z,98.04
2023-01-05T17:32:51.548Z,99.79
2023-01-05T17:36:03.702Z,100.00
2023-01-05T17:39:15.539Z,100.00
2023-01-05T17:42:36.432Z,100.00
2023-01-05T17:45:48.386Z,100.00
2023-01-05T17:49:00.640Z,100.00
2023-01-05T17:52:12.573Z,100.00
2023-01-05T17:55:24.447Z,100.00
2023-01-05T17:58:34.771Z,100.00
2023-01-05T18:04:57.590Z,100.00
2023-01-05T18:08:07.800Z,100.00
2023-01-05T18:11:18.040Z,100.00
2023-01-05T18:14:28.232Z,100.00
2023-01-05T18:17:39.898Z,100.00
2023-01-05T18:20:51.429Z,100.00
2023-01-05T18:24:01.600Z,100.00
2023-01-05T18:27:12.976Z,100.00
2023-01-05T18:30:22.957Z,100.00
2023-01-05T18:33:34.183Z,100.00
2023-01-05T18:36:44.260Z,100.00
2023-01-05T18:39:54.444Z,100.00
2023-01-05T18:43:04.415Z,100.00
2023-01-05T18:46:14.407Z,100.00
2023-01-05T18:49:26.019Z,100.00
2023-01-05T18:52:38.594Z,100.00
2023-01-05T18:55:49.077Z,100.00
2023-01-05T18:58:59.241Z,100.00
2023-01-05T19:02:15.047Z,100.00
2023-01-05T19:05:26.865Z,100.00
2023-01-05T19:08:37.157Z,100.00
2023-01-05T19:11:48.778Z,100.00
2023-01-05T19:14:58.900Z,100.00
2023-01-05T19:18:08.857Z,100.00
2023-01-05T19:21:20.700Z,100.00
2023-01-05T19:24:32.351Z,100.00
2023-01-05T19:27:45.089Z,100.00
2023-01-05T19:30:55.140Z,100.00
2023-01-05T19:34:05.821Z,100.00
2023-01-05T19:37:17.175Z,100.00
2023-01-05T19:40:27.286Z,100.00
2023-01-05T19:43:40.638Z,100.00
2023-01-05T19:46:52.301Z,100.00
2023-01-05T19:50:02.353Z,100.00
2023-01-05T19:53:13.742Z,100.00
2023-01-05T19:56:25.277Z,100.00
2023-01-05T19:59:36.319Z,100.00
2023-01-05T20:02:46.414Z,100.00
2023-01-05T20:06:06.200Z,100.00
2023-01-05T20:09:19.525Z,100.00
2023-01-05T20:12:29.533Z,100.00
2023-01-05T20:15:39.709Z,100.00
2023-01-05T20:18:49.814Z,100.00
2023-01-05T20:22:01.754Z,100.00
2023-01-05T20:25:12.997Z,100.00
2023-01-05T20:28:22.917Z,100.00
2023-01-05T20:31:35.445Z,100.00
2023-01-05T20:34:47.147Z,100.00
2023-01-05T20:37:57.125Z,100.00
2023-01-05T20:41:15.999Z,100.00
2023-01-05T20:44:28.219Z,100.00
2023-01-05T20:47:47.502Z,100.00
2023-01-05T20:51:03.542Z,100.00
2023-01-05T20:54:14.069Z,100.00
